createdAt,value
2017-03-15T00:01:05.597Z,19.22
2017-03-15T00:02:18.830Z,19.22
2017-03-15T00:03:32.085Z,19.19
2017-03-15T00:04:45.345Z,19.26
2017-03-15T00:05:58.651Z,19.25
2017-03-15T00:07:11.924Z,19.28
2017-03-15T00:08:24.724Z,19.29
2017-03-15T00:09:37.962Z,19.29
2017-03-15T00:10:50.702Z,19.29
2017-03-15T00:12:03.457Z,19.4
2017-03-15T00:13:16.710Z,19.32
2017-03-15T00:14:29.973Z,19.36
2017-03-15T00:15:43.267Z,19.39
2017-03-15T00:16:55.491Z,19.33
2017-03-15T00:18:08.769Z,19.41
2017-03-15T00:19:21.515Z,19.36
2017-03-15T00:20:34.761Z,19.39
2017-03-15T00:21:47.009Z,19.26
2017-03-15T00:23:00.304Z,19.25
2017-03-15T00:24:13.098Z,19.25
2017-03-15T00:25:25.866Z,19.23
2017-03-15T00:26:39.109Z,19.32
2017-03-15T00:27:51.863Z,19.21
2017-03-15T00:29:05.121Z,19.22
2017-03-15T00:30:17.893Z,19.23
2017-03-15T00:31:30.659Z,19.36
2017-03-15T00:32:43.441Z,19.26
2017-03-15T00:33:56.726Z,19.26
2017-03-15T00:35:09.461Z,19.23
2017-03-15T00:36:22.192Z,19.26
2017-03-15T00:37:34.977Z,19.26
2017-03-15T00:38:47.201Z,19.26
2017-03-15T00:39:59.468Z,19.33
2017-03-15T00:41:12.705Z,19.39
2017-03-15T00:42:25.968Z,19.43
2017-03-15T00:43:38.706Z,19.39
2017-03-15T00:44:51.935Z,19.33
2017-03-15T00:46:05.198Z,19.22
2017-03-15T00:47:18.578Z,19.18
2017-03-15T00:48:31.325Z,19.22
2017-03-15T00:49:44.082Z,19.18
2017-03-15T00:50:56.307Z,19.22
2017-03-15T00:52:09.023Z,19.28
2017-03-15T00:53:21.801Z,19.26
2017-03-15T00:54:35.058Z,19.4
2017-03-15T00:55:48.297Z,19.39
2017-03-15T00:57:01.558Z,19.28
2017-03-15T00:58:14.798Z,19.33
2017-03-15T00:59:28.056Z,19.36
2017-03-15T01:00:40.836Z,19.4
2017-03-15T01:01:54.108Z,19.37
2017-03-15T01:03:06.845Z,19.41
2017-03-15T01:04:19.620Z,19.44
2017-03-15T01:05:32.878Z,19.51
2017-03-15T01:06:46.141Z,19.47
2017-03-15T01:07:59.387Z,19.51
2017-03-15T01:09:12.123Z,19.47
2017-03-15T01:10:24.341Z,19.47
2017-03-15T01:11:37.365Z,19.51
2017-03-15T01:12:50.285Z,19.5
2017-03-15T01:14:03.578Z,19.48
2017-03-15T01:15:16.869Z,19.5
2017-03-15T01:16:30.158Z,19.51
2017-03-15T01:17:43.401Z,19.59
2017-03-15T01:18:56.647Z,19.56
2017-03-15T01:20:09.412Z,19.59
2017-03-15T01:21:22.685Z,19.58
2017-03-15T01:22:35.991Z,19.56
2017-03-15T01:23:49.225Z,19.65
2017-03-15T01:25:01.992Z,19.66
2017-03-15T01:26:15.264Z,19.66
2017-03-15T01:27:28.546Z,19.73
2017-03-15T01:28:41.805Z,19.69
2017-03-15T01:29:53.514Z,19.61
2017-03-15T01:31:06.234Z,19.69
2017-03-15T01:32:19.510Z,19.69
2017-03-15T01:33:32.809Z,19.62
2017-03-15T01:34:45.033Z,19.65
2017-03-15T01:35:57.808Z,19.68
2017-03-15T01:37:10.555Z,19.63
2017-03-15T01:38:23.302Z,19.62
2017-03-15T01:39:36.086Z,19.65
2017-03-15T01:40:49.378Z,19.68
2017-03-15T01:42:02.149Z,19.73
2017-03-15T01:43:15.401Z,19.62
2017-03-15T01:44:28.672Z,19.56
2017-03-15T01:45:41.938Z,19.58
2017-03-15T01:46:54.170Z,19.68
2017-03-15T01:48:06.420Z,19.61
2017-03-15T01:49:19.713Z,19.61
2017-03-15T01:50:32.989Z,19.65
2017-03-15T01:51:46.254Z,19.69
2017-03-15T01:52:59.515Z,19.63
2017-03-15T01:54:12.775Z,19.71
2017-03-15T01:55:26.046Z,19.63
2017-03-15T01:56:39.307Z,19.63
2017-03-15T01:57:52.057Z,19.65
2017-03-15T01:59:05.331Z,19.69
2017-03-15T02:00:18.574Z,19.74
2017-03-15T02:01:31.344Z,19.77
2017-03-15T02:02:44.575Z,19.73
2017-03-15T02:03:56.818Z,19.73
2017-03-15T02:05:09.559Z,19.76
2017-03-15T02:06:22.300Z,19.73
2017-03-15T02:07:35.127Z,19.74
2017-03-15T02:08:47.382Z,19.78
2017-03-15T02:09:59.645Z,19.77
2017-03-15T02:11:11.866Z,19.74
2017-03-15T02:12:24.603Z,19.83
2017-03-15T02:13:37.870Z,19.87
2017-03-15T02:14:51.136Z,19.87
2017-03-15T02:16:03.864Z,19.99
2017-03-15T02:17:16.604Z,19.86
2017-03-15T02:18:29.359Z,19.84
2017-03-15T02:19:42.737Z,19.86
2017-03-15T02:20:55.482Z,19.88
2017-03-15T02:22:08.739Z,19.84
2017-03-15T02:23:22.015Z,19.84
2017-03-15T02:24:34.766Z,19.78
2017-03-15T02:25:47.535Z,19.77
2017-03-15T02:27:00.798Z,19.73
2017-03-15T02:28:13.845Z,19.71
2017-03-15T02:29:27.464Z,19.71
2017-03-15T02:30:40.205Z,19.68
2017-03-15T02:31:52.918Z,19.66
2017-03-15T02:33:06.143Z,19.77
2017-03-15T02:34:18.875Z,19.74
2017-03-15T02:35:32.154Z,19.77
2017-03-15T02:36:44.422Z,19.77
2017-03-15T02:37:56.656Z,19.69
2017-03-15T02:39:09.399Z,19.69
2017-03-15T02:40:22.421Z,19.76
2017-03-15T02:41:35.053Z,19.84
2017-03-15T02:42:48.528Z,19.77
2017-03-15T02:44:00.769Z,19.81
2017-03-15T02:45:13.501Z,19.83
2017-03-15T02:46:26.717Z,19.87
2017-03-15T02:47:39.458Z,19.83
2017-03-15T02:48:52.749Z,19.84
2017-03-15T02:50:05.480Z,19.84
2017-03-15T02:51:18.232Z,19.78
2017-03-15T02:52:31.494Z,19.8
2017-03-15T02:53:44.228Z,19.73
2017-03-15T02:54:56.947Z,19.74
2017-03-15T02:56:09.670Z,19.74
2017-03-15T02:57:22.396Z,19.77
2017-03-15T02:58:35.117Z,19.77
2017-03-15T02:59:47.901Z,19.8
2017-03-15T03:01:00.177Z,19.87
2017-03-15T03:02:13.440Z,19.84
2017-03-15T03:03:26.178Z,19.86
2017-03-15T03:04:38.896Z,19.88
2017-03-15T03:05:51.103Z,19.91
2017-03-15T03:07:04.352Z,19.86
2017-03-15T03:08:17.607Z,19.86
2017-03-15T03:09:30.926Z,19.91
2017-03-15T03:10:43.144Z,19.86
2017-03-15T03:11:56.373Z,19.98
2017-03-15T03:13:09.629Z,19.91
2017-03-15T03:14:22.874Z,19.84
2017-03-15T03:15:36.134Z,19.87
2017-03-15T03:16:49.380Z,19.86
2017-03-15T03:18:02.675Z,19.84
2017-03-15T03:19:15.434Z,19.87
2017-03-15T03:20:28.671Z,19.84
2017-03-15T03:21:40.881Z,19.84
2017-03-15T03:22:53.628Z,19.88
2017-03-15T03:24:05.875Z,19.86
2017-03-15T03:25:19.137Z,19.88
2017-03-15T03:26:31.868Z,19.91
2017-03-15T03:27:45.105Z,19.87
2017-03-15T03:28:58.385Z,19.96
2017-03-15T03:30:11.650Z,19.86
2017-03-15T03:31:24.435Z,19.83
2017-03-15T03:32:37.181Z,19.96
2017-03-15T03:33:50.446Z,20.01
2017-03-15T03:35:03.666Z,20.01
2017-03-15T03:36:16.401Z,20.02
2017-03-15T03:37:29.679Z,20.14
2017-03-15T03:38:42.978Z,20.13
2017-03-15T03:39:55.700Z,20.08
2017-03-15T03:41:08.960Z,20.02
2017-03-15T03:42:21.711Z,19.99
2017-03-15T03:43:34.993Z,20.03
2017-03-15T03:44:47.734Z,20.06
2017-03-15T03:46:01.071Z,19.98
2017-03-15T03:47:13.800Z,20.01
2017-03-15T03:48:27.047Z,19.94
2017-03-15T03:49:40.328Z,20.05
2017-03-15T03:50:53.590Z,20.01
2017-03-15T03:52:06.836Z,19.99
2017-03-15T03:53:19.033Z,20.05
2017-03-15T03:54:31.780Z,19.98
2017-03-15T03:55:44.544Z,20.03
2017-03-15T03:56:57.809Z,20.08
2017-03-15T03:58:11.077Z,20.2
2017-03-15T03:59:23.848Z,20.06
2017-03-15T04:00:36.624Z,20.21
2017-03-15T04:01:48.879Z,20.08
2017-03-15T04:03:01.093Z,20.1
2017-03-15T04:04:13.813Z,20.06
2017-03-15T04:05:27.087Z,20.05
2017-03-15T04:06:39.833Z,20.18
2017-03-15T04:07:53.115Z,20.2
2017-03-15T04:09:05.846Z,20.29
2017-03-15T04:10:19.109Z,20.28
2017-03-15T04:11:32.406Z,20.23
2017-03-15T04:12:45.686Z,20.29
2017-03-15T04:13:58.975Z,20.24
2017-03-15T04:15:12.237Z,20.28
2017-03-15T04:16:25.486Z,20.31
2017-03-15T04:17:38.229Z,20.36
2017-03-15T04:18:50.975Z,20.42
2017-03-15T04:20:04.240Z,20.47
2017-03-15T04:21:16.990Z,20.43
2017-03-15T04:22:30.252Z,20.47
2017-03-15T04:23:43.018Z,20.48
2017-03-15T04:24:56.271Z,20.48
2017-03-15T04:26:09.027Z,20.39
2017-03-15T04:27:22.243Z,20.55
2017-03-15T04:28:35.504Z,20.59
2017-03-15T04:29:48.284Z,20.61
2017-03-15T04:31:01.032Z,20.55
2017-03-15T04:32:13.760Z,20.47
2017-03-15T04:33:27.047Z,20.59
2017-03-15T04:34:39.301Z,20.64
2017-03-15T04:35:52.546Z,20.59
2017-03-15T04:37:05.824Z,20.64
2017-03-15T04:38:19.054Z,20.55
2017-03-15T04:39:31.823Z,20.61
2017-03-15T04:40:44.583Z,20.52
2017-03-15T04:41:57.799Z,20.64
2017-03-15T04:43:11.024Z,20.48
2017-03-15T04:44:24.303Z,20.59
2017-03-15T04:45:37.059Z,20.52
2017-03-15T04:46:50.307Z,20.57
2017-03-15T04:48:03.559Z,20.48
2017-03-15T04:49:16.286Z,20.57
2017-03-15T04:50:29.566Z,20.62
2017-03-15T04:51:42.802Z,20.57
2017-03-15T04:52:56.049Z,20.58
2017-03-15T04:54:09.374Z,20.58
2017-03-15T04:55:22.650Z,20.59
2017-03-15T04:56:35.416Z,20.59
2017-03-15T04:57:48.658Z,20.48
2017-03-15T04:59:01.411Z,20.48
2017-03-15T05:00:14.679Z,20.47
2017-03-15T05:01:27.947Z,20.61
2017-03-15T05:02:40.693Z,20.51
2017-03-15T05:03:53.924Z,20.5
2017-03-15T05:05:06.666Z,20.57
2017-03-15T05:06:19.426Z,20.48
2017-03-15T05:07:32.661Z,20.55
2017-03-15T05:08:44.887Z,20.5
2017-03-15T05:09:58.131Z,20.59
2017-03-15T05:11:11.360Z,20.58
2017-03-15T05:12:24.638Z,20.55
2017-03-15T05:13:37.398Z,20.54
2017-03-15T05:14:50.660Z,20.48
2017-03-15T05:16:04.074Z,20.62
2017-03-15T05:17:16.784Z,20.66
2017-03-15T05:18:29.491Z,20.59
2017-03-15T05:19:42.270Z,20.55
2017-03-15T05:20:55.042Z,20.51
2017-03-15T05:22:08.310Z,20.58
2017-03-15T05:23:21.589Z,20.57
2017-03-15T05:24:34.874Z,20.54
2017-03-15T05:25:48.107Z,20.47
2017-03-15T05:27:00.330Z,20.62
2017-03-15T05:28:12.565Z,20.54
2017-03-15T05:29:24.811Z,20.58
2017-03-15T05:30:37.551Z,20.54
2017-03-15T05:31:50.287Z,20.51
2017-03-15T05:33:03.045Z,20.5
2017-03-15T05:34:15.772Z,20.59
2017-03-15T05:35:29.006Z,20.54
2017-03-15T05:36:41.273Z,20.62
2017-03-15T05:37:54.542Z,20.62
2017-03-15T05:39:06.262Z,20.57
2017-03-15T05:40:19.518Z,20.59
2017-03-15T05:41:32.833Z,20.41
2017-03-15T05:42:45.054Z,20.48
2017-03-15T05:43:58.341Z,20.48
2017-03-15T05:45:11.804Z,20.42
2017-03-15T05:46:25.072Z,20.47
2017-03-15T05:47:37.830Z,20.41
2017-03-15T05:48:51.128Z,20.47
2017-03-15T05:50:03.872Z,20.48
2017-03-15T05:51:16.605Z,20.51
2017-03-15T05:52:29.352Z,20.41
2017-03-15T05:53:42.104Z,20.47
2017-03-15T05:54:54.320Z,20.52
2017-03-15T05:56:07.063Z,20.52
2017-03-15T05:57:19.836Z,20.54
2017-03-15T05:58:33.131Z,20.55
2017-03-15T05:59:45.346Z,20.57
2017-03-15T06:00:58.112Z,20.61
2017-03-15T06:02:10.902Z,20.62
2017-03-15T06:03:23.657Z,20.62
2017-03-15T06:04:36.902Z,20.67
2017-03-15T06:05:50.182Z,20.66
2017-03-15T06:07:03.448Z,20.64
2017-03-15T06:08:16.219Z,20.64
2017-03-15T06:09:29.456Z,20.62
2017-03-15T06:10:41.149Z,20.66
2017-03-15T06:11:53.886Z,20.67
2017-03-15T06:13:06.652Z,20.59
2017-03-15T06:14:19.729Z,20.69
2017-03-15T06:15:32.572Z,20.7
2017-03-15T06:16:45.977Z,20.64
2017-03-15T06:17:59.950Z,20.76
2017-03-15T06:19:12.841Z,20.73
2017-03-15T06:20:26.841Z,20.62
2017-03-15T06:21:40.868Z,20.74
2017-03-15T06:22:54.862Z,20.64
2017-03-15T06:24:07.701Z,20.61
2017-03-15T06:25:21.680Z,20.74
2017-03-15T06:26:34.528Z,20.62
2017-03-15T06:27:47.964Z,20.59
2017-03-15T06:29:01.362Z,20.7
2017-03-15T06:30:15.336Z,20.7
2017-03-15T06:31:29.287Z,20.69
2017-03-15T06:32:43.288Z,20.72
2017-03-15T06:33:56.689Z,20.59
2017-03-15T06:35:09.531Z,20.74
2017-03-15T06:36:23.481Z,20.69
2017-03-15T06:37:37.430Z,20.62
2017-03-15T06:38:50.855Z,20.64
2017-03-15T06:40:03.702Z,20.66
2017-03-15T06:41:17.092Z,20.64
2017-03-15T06:42:29.920Z,20.59
2017-03-15T06:43:42.804Z,20.51
2017-03-15T06:44:56.787Z,20.55
2017-03-15T06:46:10.300Z,20.59
2017-03-15T06:47:24.302Z,20.59
2017-03-15T06:48:37.714Z,20.57
2017-03-15T06:49:51.661Z,20.59
2017-03-15T06:51:05.669Z,20.58
2017-03-15T06:52:19.647Z,20.52
2017-03-15T06:53:33.672Z,20.66
2017-03-15T06:54:46.527Z,20.66
2017-03-15T06:55:59.913Z,20.7
2017-03-15T06:57:12.193Z,20.73
2017-03-15T06:58:25.627Z,20.73
2017-03-15T06:59:39.633Z,20.74
2017-03-15T07:00:53.640Z,20.64
2017-03-15T07:02:07.036Z,20.64
2017-03-15T07:03:21.043Z,20.74
2017-03-15T07:04:35.031Z,20.82
2017-03-15T07:05:49.008Z,20.79
2017-03-15T07:07:02.440Z,20.79
2017-03-15T07:08:15.831Z,20.79
2017-03-15T07:09:29.854Z,20.82
2017-03-15T07:10:43.895Z,20.79
2017-03-15T07:11:57.899Z,20.79
2017-03-15T07:13:11.890Z,20.79
2017-03-15T07:14:25.855Z,20.76
2017-03-15T07:15:39.814Z,20.8
2017-03-15T07:16:52.697Z,20.69
2017-03-15T07:18:05.551Z,20.74
2017-03-15T07:19:19.537Z,20.7
2017-03-15T07:20:32.420Z,20.67
2017-03-15T07:21:45.869Z,20.59
2017-03-15T07:22:59.865Z,20.67
2017-03-15T07:24:12.149Z,20.67
2017-03-15T07:25:25.566Z,20.64
2017-03-15T07:26:38.453Z,20.61
2017-03-15T07:27:51.332Z,20.64
2017-03-15T07:29:05.300Z,20.59
2017-03-15T07:30:18.742Z,20.73
2017-03-15T07:31:32.720Z,20.74
2017-03-15T07:32:46.698Z,20.74
2017-03-15T07:34:00.146Z,20.73
2017-03-15T07:35:13.574Z,20.64
2017-03-15T07:36:27.535Z,20.67
2017-03-15T07:37:40.405Z,20.62
2017-03-15T07:38:53.811Z,20.58
2017-03-15T07:40:07.766Z,20.7
2017-03-15T07:41:21.762Z,20.76
2017-03-15T07:42:35.768Z,20.72
2017-03-15T07:43:49.770Z,20.77
2017-03-15T07:45:03.217Z,20.77
2017-03-15T07:46:16.608Z,20.88
2017-03-15T07:47:30.560Z,20.79
2017-03-15T07:48:44.528Z,20.84
2017-03-15T07:49:57.973Z,20.87
2017-03-15T07:51:10.827Z,20.88
2017-03-15T07:52:24.838Z,20.82
2017-03-15T07:53:38.785Z,20.82
2017-03-15T07:54:51.666Z,20.76
2017-03-15T07:56:05.653Z,20.74
2017-03-15T07:57:19.035Z,20.77
2017-03-15T07:58:33.003Z,20.74
2017-03-15T07:59:46.972Z,20.69
2017-03-15T08:01:00.385Z,20.67
2017-03-15T08:02:13.794Z,20.64
2017-03-15T08:03:27.229Z,20.69
2017-03-15T08:04:41.196Z,20.64
2017-03-15T08:05:55.182Z,20.51
2017-03-15T08:07:08.679Z,20.69
2017-03-15T08:08:22.679Z,20.61
2017-03-15T08:09:36.079Z,20.51
2017-03-15T08:10:48.940Z,20.59
2017-03-15T08:12:02.912Z,20.58
2017-03-15T08:13:16.863Z,20.47
2017-03-15T08:14:30.299Z,20.43
2017-03-15T08:15:44.282Z,20.41
2017-03-15T08:16:58.244Z,20.38
2017-03-15T08:18:11.651Z,20.31
2017-03-15T08:19:25.034Z,20.31
2017-03-15T08:20:38.443Z,20.32
2017-03-15T08:21:51.836Z,20.36
2017-03-15T08:23:05.797Z,20.31
2017-03-15T08:24:19.348Z,20.38
2017-03-15T08:25:33.322Z,20.39
2017-03-15T08:26:47.349Z,20.39
2017-03-15T08:28:01.315Z,20.26
2017-03-15T08:29:15.340Z,20.33
2017-03-15T08:30:29.358Z,20.28
2017-03-15T08:31:43.340Z,20.2
2017-03-15T08:32:56.742Z,20.21
2017-03-15T08:34:10.184Z,20.21
2017-03-15T08:35:24.208Z,20.17
2017-03-15T08:36:37.610Z,20.13
2017-03-15T08:37:51.569Z,20.13
2017-03-15T08:39:05.567Z,20.21
2017-03-15T08:40:19.575Z,20.28
2017-03-15T08:41:33.515Z,20.28
2017-03-15T08:42:47.501Z,20.35
2017-03-15T08:44:01.493Z,20.5
2017-03-15T08:45:14.892Z,20.48
2017-03-15T08:46:28.304Z,20.5
2017-03-15T08:47:41.704Z,20.55
2017-03-15T08:48:55.145Z,20.43
2017-03-15T08:50:09.112Z,20.5
2017-03-15T08:51:23.095Z,20.5
2017-03-15T08:52:37.048Z,20.54
2017-03-15T08:53:51.037Z,20.36
2017-03-15T08:55:04.493Z,20.31
2017-03-15T08:56:18.163Z,20.24
2017-03-15T08:57:32.128Z,20.18
2017-03-15T08:58:45.556Z,20.08
2017-03-15T08:59:58.993Z,20.21
2017-03-15T09:01:12.958Z,20.32
2017-03-15T09:02:26.917Z,20.2
2017-03-15T09:03:40.931Z,20.23
2017-03-15T09:04:54.319Z,20.13
2017-03-15T09:06:07.722Z,20.2
2017-03-15T09:07:21.698Z,20.31
2017-03-15T09:08:34.529Z,20.23
2017-03-15T09:09:48.491Z,20.26
2017-03-15T09:11:02.459Z,20.29
2017-03-15T09:12:16.418Z,20.29
2017-03-15T09:13:29.838Z,20.32
2017-03-15T09:14:43.850Z,20.28
2017-03-15T09:15:57.272Z,20.24
2017-03-15T09:17:10.671Z,20.33
2017-03-15T09:18:24.662Z,20.24
2017-03-15T09:19:38.637Z,20.23
2017-03-15T09:20:52.607Z,20.41
2017-03-15T09:22:06.010Z,20.35
2017-03-15T09:23:19.406Z,20.36
2017-03-15T09:24:33.371Z,20.36
2017-03-15T09:25:47.352Z,20.32
2017-03-15T09:27:01.354Z,20.21
2017-03-15T09:28:14.774Z,20.26
2017-03-15T09:29:28.178Z,20.28
2017-03-15T09:30:41.619Z,20.26
2017-03-15T09:31:55.601Z,20.29
2017-03-15T09:33:09.564Z,20.28
2017-03-15T09:34:22.405Z,20.28
2017-03-15T09:35:36.383Z,20.26
2017-03-15T09:36:48.672Z,20.35
2017-03-15T09:38:02.624Z,20.39
2017-03-15T09:39:16.577Z,20.33
2017-03-15T09:40:30.565Z,20.31
2017-03-15T09:41:44.522Z,20.32
2017-03-15T09:42:58.512Z,20.31
2017-03-15T09:44:12.508Z,20.33
2017-03-15T09:45:25.918Z,20.36
2017-03-15T09:46:38.225Z,20.43
2017-03-15T09:47:51.666Z,20.42
2017-03-15T09:49:05.694Z,20.47
2017-03-15T09:50:19.116Z,20.54
2017-03-15T09:51:33.094Z,20.54
2017-03-15T09:52:45.944Z,20.64
2017-03-15T09:53:58.804Z,20.79
2017-03-15T09:55:12.239Z,20.95
2017-03-15T09:56:25.677Z,20.94
2017-03-15T09:57:39.103Z,20.95
2017-03-15T09:58:51.957Z,20.92
2017-03-15T10:00:05.392Z,20.99
2017-03-15T10:01:19.362Z,21.24
2017-03-15T10:02:33.356Z,21.52
2017-03-15T10:03:46.762Z,21.49
2017-03-15T10:05:00.723Z,21.4
2017-03-15T10:06:13.007Z,21.34
2017-03-15T10:07:26.941Z,21.09
2017-03-15T10:08:40.921Z,21.03
2017-03-15T10:09:54.941Z,21.03
2017-03-15T10:11:08.386Z,21.07
2017-03-15T10:12:21.785Z,21.09
2017-03-15T10:13:35.791Z,21.12
2017-03-15T10:14:49.209Z,21.06
2017-03-15T10:16:02.620Z,21.24
2017-03-15T10:17:16.035Z,21.28
2017-03-15T10:18:29.994Z,21.32
2017-03-15T10:19:43.399Z,21.27
2017-03-15T10:20:56.799Z,21.34
2017-03-15T10:22:10.791Z,21.44
2017-03-15T10:23:24.201Z,21.54
2017-03-15T10:24:37.088Z,21.88
2017-03-15T10:25:51.066Z,22
2017-03-15T10:27:05.083Z,22.21
2017-03-15T10:28:18.511Z,22.55
2017-03-15T10:29:31.929Z,22.61
2017-03-15T10:30:45.344Z,22.7
2017-03-15T10:31:59.303Z,22.98
2017-03-15T10:33:12.717Z,23.16
2017-03-15T10:34:26.748Z,23.48
2017-03-15T10:35:40.167Z,23.78
2017-03-15T10:36:54.113Z,23.75
2017-03-15T10:38:07.541Z,23.55
2017-03-15T10:39:21.539Z,23.4
2017-03-15T10:40:34.955Z,23.15
2017-03-15T10:41:48.920Z,22.79
2017-03-15T10:43:01.771Z,22.6
2017-03-15T10:44:14.619Z,22.7
2017-03-15T10:45:28.568Z,23.05
2017-03-15T10:46:41.987Z,23.32
2017-03-15T10:47:55.384Z,23.39
2017-03-15T10:49:09.374Z,23.33
2017-03-15T10:50:23.345Z,23
2017-03-15T10:51:36.746Z,22.83
2017-03-15T10:52:50.146Z,23.04
2017-03-15T10:54:03.596Z,23.2
2017-03-15T10:55:17.587Z,23.57
2017-03-15T10:56:30.479Z,23.5
2017-03-15T10:57:44.538Z,23.28
2017-03-15T10:58:57.959Z,22.97
2017-03-15T11:00:11.392Z,22.61
2017-03-15T11:01:25.385Z,22.52
2017-03-15T11:02:39.405Z,22.43
2017-03-15T11:03:53.375Z,22.31
2017-03-15T11:05:06.798Z,22.54
2017-03-15T11:06:20.761Z,22.76
2017-03-15T11:07:34.166Z,22.98
2017-03-15T11:08:48.123Z,23.38
2017-03-15T11:10:02.169Z,23.6
2017-03-15T11:11:15.584Z,23.51
2017-03-15T11:12:29.052Z,23.43
2017-03-15T11:13:42.261Z,23.28
2017-03-15T11:14:56.469Z,23.47
2017-03-15T11:16:09.878Z,23.54
2017-03-15T11:17:23.832Z,23.53
2017-03-15T11:18:37.949Z,23.72
2017-03-15T11:19:51.907Z,23.75
2017-03-15T11:21:05.311Z,23.68
2017-03-15T11:22:19.290Z,23.57
2017-03-15T11:23:33.289Z,23.54
2017-03-15T11:24:46.707Z,23.4
2017-03-15T11:26:00.077Z,23.32
2017-03-15T11:27:12.946Z,23.53
2017-03-15T11:28:26.358Z,23.39
2017-03-15T11:29:39.760Z,23.31
2017-03-15T11:30:53.144Z,23.12
2017-03-15T11:32:06.552Z,23.23
2017-03-15T11:33:20.048Z,23.38
2017-03-15T11:34:33.762Z,23.39
2017-03-15T11:35:47.167Z,23.27
2017-03-15T11:37:01.138Z,22.97
2017-03-15T11:38:14.541Z,23.05
2017-03-15T11:39:28.487Z,23.42
2017-03-15T11:40:41.901Z,23.79
2017-03-15T11:41:55.309Z,23.68
2017-03-15T11:43:09.274Z,23.65
2017-03-15T11:44:22.685Z,23.69
2017-03-15T11:45:36.690Z,23.53
2017-03-15T11:46:50.123Z,23.28
2017-03-15T11:48:02.433Z,23.13
2017-03-15T11:49:15.922Z,23.31
2017-03-15T11:50:29.389Z,23.73
2017-03-15T11:51:43.356Z,23.93
2017-03-15T11:52:56.223Z,23.98
2017-03-15T11:54:07.947Z,23.94
2017-03-15T11:55:21.326Z,23.79
2017-03-15T11:56:34.759Z,23.76
2017-03-15T11:57:48.180Z,23.7
2017-03-15T11:59:02.228Z,23.46
2017-03-15T12:00:15.634Z,23.23
2017-03-15T12:01:29.657Z,23.33
2017-03-15T12:02:42.504Z,23.43
2017-03-15T12:03:55.359Z,23.42
2017-03-15T12:05:09.300Z,23.55
2017-03-15T12:06:22.170Z,23.53
2017-03-15T12:07:54.580Z,23.28
2017-03-15T12:09:08.598Z,23.1
2017-03-15T12:10:22.604Z,23.09
2017-03-15T12:11:36.574Z,23.28
2017-03-15T12:12:49.970Z,23.73
2017-03-15T12:14:02.253Z,23.98
2017-03-15T12:15:14.548Z,24.49
2017-03-15T12:16:26.837Z,24.34
2017-03-15T12:17:40.801Z,24.31
2017-03-15T12:18:54.783Z,24.42
2017-03-15T12:20:08.749Z,24.47
2017-03-15T12:21:21.586Z,24.61
2017-03-15T12:22:35.006Z,24.49
2017-03-15T12:23:48.975Z,24.39
2017-03-15T12:25:01.835Z,24.67
2017-03-15T12:26:15.798Z,24.77
2017-03-15T12:27:29.791Z,24.61
2017-03-15T12:29:02.402Z,24.99
2017-03-15T12:30:15.866Z,25.05
2017-03-15T12:31:30.040Z,25.58
2017-03-15T12:32:44.038Z,25.7
2017-03-15T12:33:56.932Z,25.27
2017-03-15T12:35:10.362Z,24.95
2017-03-15T12:36:23.802Z,25
2017-03-15T12:37:37.780Z,25.06
2017-03-15T12:38:51.198Z,24.99
2017-03-15T12:40:04.034Z,25
2017-03-15T12:41:17.494Z,25.06
2017-03-15T12:42:30.925Z,25.4
2017-03-15T12:43:44.910Z,25.35
2017-03-15T12:44:58.874Z,25.18
2017-03-15T12:46:12.846Z,24.99
2017-03-15T12:47:26.269Z,25.27
2017-03-15T12:48:40.273Z,25.42
2017-03-15T12:49:53.671Z,25.4
2017-03-15T12:51:07.098Z,25.47
2017-03-15T12:52:21.086Z,25.69
2017-03-15T12:53:34.484Z,25.85
2017-03-15T12:54:48.088Z,25.54
2017-03-15T12:56:02.064Z,25.33
2017-03-15T12:57:15.475Z,24.84
2017-03-15T12:58:29.458Z,24.6
2017-03-15T12:59:42.317Z,24.6
2017-03-15T13:00:55.711Z,24.35
2017-03-15T13:02:09.386Z,24.52
2017-03-15T13:03:23.137Z,24.62
2017-03-15T13:04:36.585Z,24.83
2017-03-15T13:05:49.424Z,25.15
2017-03-15T13:07:02.258Z,25.46
2017-03-15T13:08:16.220Z,25.7
2017-03-15T13:09:30.182Z,26.06
2017-03-15T13:10:43.044Z,26.1
2017-03-15T13:11:57.070Z,25.97
2017-03-15T13:13:09.906Z,26.09
2017-03-15T13:14:23.312Z,26.07
2017-03-15T13:15:37.264Z,26.12
2017-03-15T13:16:49.552Z,26.44
2017-03-15T13:18:02.967Z,26.58
2017-03-15T13:19:16.388Z,26.66
2017-03-15T13:20:30.350Z,26.73
2017-03-15T13:21:43.225Z,26.81
2017-03-15T13:22:56.661Z,27.1
2017-03-15T13:24:10.069Z,27.06
2017-03-15T13:25:23.483Z,27.14
2017-03-15T13:26:37.120Z,27.25
2017-03-15T13:27:49.985Z,27.07
2017-03-15T13:29:03.437Z,27.13
2017-03-15T13:30:17.446Z,27.09
2017-03-15T13:31:30.888Z,26.91
2017-03-15T13:32:44.323Z,26.76
2017-03-15T13:33:58.317Z,27.04
2017-03-15T13:35:11.711Z,27.1
2017-03-15T13:36:25.681Z,27.12
2017-03-15T13:37:39.686Z,27.27
2017-03-15T13:38:53.098Z,27.07
2017-03-15T13:40:05.424Z,26.88
2017-03-15T13:41:19.380Z,27.25
2017-03-15T13:42:32.840Z,27.59
2017-03-15T13:43:45.732Z,28.07
2017-03-15T13:44:59.695Z,28.24
2017-03-15T13:46:13.131Z,28.18
2017-03-15T13:47:26.611Z,27.88
2017-03-15T13:48:40.063Z,27.9
2017-03-15T13:49:54.055Z,27.69
2017-03-15T13:51:08.047Z,27.54
2017-03-15T13:52:20.363Z,27.5
2017-03-15T13:53:33.784Z,27.69
2017-03-15T13:54:47.761Z,27.9
2017-03-15T13:56:01.185Z,27.4
2017-03-15T13:57:14.626Z,27.37
2017-03-15T13:58:27.511Z,27.46
2017-03-15T13:59:41.504Z,27.39
2017-03-15T14:00:55.473Z,27.22
2017-03-15T14:02:08.878Z,27.07
2017-03-15T14:03:21.728Z,27.07
2017-03-15T14:04:35.166Z,27.12
2017-03-15T14:05:49.174Z,27.17
2017-03-15T14:07:02.603Z,26.76
2017-03-15T14:08:16.588Z,26.5
2017-03-15T14:09:30.018Z,26.28
2017-03-15T14:10:43.419Z,26.37
2017-03-15T14:11:57.380Z,26.7
2017-03-15T14:13:10.813Z,27.09
2017-03-15T14:14:24.864Z,27.54
2017-03-15T14:15:38.266Z,27.93
2017-03-15T14:16:52.260Z,28.52
2017-03-15T14:18:05.715Z,28.58
2017-03-15T14:19:19.683Z,28.68
2017-03-15T14:20:33.669Z,28.92
2017-03-15T14:21:47.135Z,29.19
2017-03-15T14:23:00.010Z,29.33
2017-03-15T14:24:13.983Z,29.31
2017-03-15T14:25:27.423Z,29.26
2017-03-15T14:26:41.388Z,29.37
2017-03-15T14:27:54.229Z,29.92
2017-03-15T14:29:07.101Z,29.97
2017-03-15T14:30:21.069Z,30.19
2017-03-15T14:31:33.925Z,30.55
2017-03-15T14:32:47.341Z,30.31
2017-03-15T14:34:01.331Z,30.53
2017-03-15T14:35:15.356Z,30.47
2017-03-15T14:36:28.746Z,30.49
2017-03-15T14:37:42.727Z,30.51
2017-03-15T14:38:55.733Z,30.82
2017-03-15T14:40:08.588Z,30.72
2017-03-15T14:41:21.439Z,30.47
2017-03-15T14:42:35.419Z,30.04
2017-03-15T14:43:49.397Z,29.95
2017-03-15T14:45:02.846Z,29.73
2017-03-15T14:46:16.377Z,29.57
2017-03-15T14:47:29.900Z,29.64
2017-03-15T14:48:43.901Z,29.57
2017-03-15T14:49:57.315Z,29.14
2017-03-15T14:51:10.717Z,29.41
2017-03-15T14:52:24.711Z,29.43
2017-03-15T14:53:38.678Z,29.53
2017-03-15T14:54:52.673Z,29.86
2017-03-15T14:56:05.560Z,30.32
2017-03-15T14:57:19.008Z,30.73
2017-03-15T14:58:33.000Z,31.02
2017-03-15T14:59:45.300Z,30.57
2017-03-15T15:00:58.759Z,30.02
2017-03-15T15:02:12.742Z,29.7
2017-03-15T15:03:26.154Z,29.02
2017-03-15T15:04:39.037Z,28.71
2017-03-15T15:05:53.076Z,28.25
2017-03-15T15:07:06.489Z,28.22
2017-03-15T15:08:19.928Z,28.77
2017-03-15T15:09:33.703Z,29.74
2017-03-15T15:10:47.798Z,30.77
2017-03-15T15:12:01.208Z,31.29
2017-03-15T15:13:14.611Z,31.7
2017-03-15T15:14:28.625Z,31.56
2017-03-15T15:15:42.770Z,30.82
2017-03-15T15:16:56.723Z,30.19
2017-03-15T15:18:10.113Z,29.85
2017-03-15T15:19:23.541Z,30.2
2017-03-15T15:20:36.975Z,30.88
2017-03-15T15:21:50.969Z,31.53
2017-03-15T15:23:04.362Z,31.68
2017-03-15T15:24:17.762Z,31.66
2017-03-15T15:25:31.224Z,32.04
2017-03-15T15:26:44.675Z,31.81
2017-03-15T15:27:58.089Z,31.12
2017-03-15T15:29:12.130Z,30.54
2017-03-15T15:30:25.595Z,30.01
2017-03-15T15:31:39.006Z,29.55
2017-03-15T15:32:52.982Z,29.18
2017-03-15T15:34:06.983Z,28.9
2017-03-15T15:35:20.952Z,28.71
2017-03-15T15:36:34.945Z,28.86
2017-03-15T15:37:48.409Z,29.71
2017-03-15T15:39:01.819Z,30.47
2017-03-15T15:40:15.788Z,31.39
2017-03-15T15:41:29.758Z,32.06
2017-03-15T15:42:42.619Z,32.15
2017-03-15T15:43:56.133Z,31.57
2017-03-15T15:45:09.579Z,31.31
2017-03-15T15:46:23.533Z,31.34
2017-03-15T15:47:37.563Z,31.66